createdAt,value
2018-09-06T00:00:20.891Z,98852.53
2018-09-06T00:03:23.091Z,98859.10
2018-09-06T00:06:25.325Z,98847.66
2018-09-06T00:09:27.639Z,98843.29
2018-09-06T00:12:29.887Z,98837.92
2018-09-06T00:15:32.212Z,98836.48
2018-09-06T00:18:34.552Z,98839.38
2018-09-06T00:21:36.790Z,98832.89
2018-09-06T00:24:39.083Z,98828.83
2018-09-06T00:27:41.418Z,98826.94
2018-09-06T00:30:43.632Z,98821.69
2018-09-06T00:33:45.894Z,98825.70
2018-09-06T00:36:48.221Z,98827.78
2018-09-06T00:39:50.402Z,98820.78
2018-09-06T00:42:52.665Z,98824.11
2018-09-06T00:45:54.949Z,98822.30
2018-09-06T00:48:57.162Z,98824.92
2018-09-06T00:51:59.590Z,98815.94
2018-09-06T00:55:01.902Z,98818.02
2018-09-06T00:58:04.194Z,98828.72
2018-09-06T01:01:06.438Z,98826.47
2018-09-06T01:04:08.641Z,98823.91
2018-09-06T01:07:10.950Z,98822.41
2018-09-06T01:10:13.901Z,98820.27
2018-09-06T01:13:16.124Z,98813.00
2018-09-06T01:16:18.536Z,98812.05
2018-09-06T01:19:20.899Z,98809.44
2018-09-06T01:22:23.435Z,98810.20
2018-09-06T01:25:30.377Z,98810.01
2018-09-06T01:28:32.693Z,98817.63
2018-09-06T01:31:34.968Z,98801.48
2018-09-06T01:34:37.256Z,98805.05
2018-09-06T01:37:39.527Z,98811.95
2018-09-06T01:40:41.863Z,98801.77
2018-09-06T01:43:44.277Z,98801.77
2018-09-06T01:46:46.474Z,98809.23
2018-09-06T01:49:48.669Z,98811.35
2018-09-06T01:52:50.887Z,98812.26
2018-09-06T01:55:53.172Z,98816.88
2018-09-06T01:58:55.675Z,98810.81
2018-09-06T02:01:58.122Z,98803.55
2018-09-06T02:05:00.386Z,98799.47
2018-09-06T02:08:03.022Z,98799.70
2018-09-06T02:11:05.247Z,98795.39
2018-09-06T02:14:07.593Z,98795.39
2018-09-06T02:17:09.946Z,98795.27
2018-09-06T02:20:12.160Z,98796.39
2018-09-06T02:23:14.530Z,98784.00
2018-09-06T02:26:16.847Z,98781.72
2018-09-06T02:29:19.150Z,98772.06
2018-09-06T02:32:21.383Z,98777.36
2018-09-06T02:35:23.705Z,98776.89
2018-09-06T02:38:25.917Z,98772.98
2018-09-06T02:41:28.234Z,98775.62
2018-09-06T02:44:30.507Z,98769.36
2018-09-06T02:47:37.666Z,98768.55
2018-09-06T02:50:45.405Z,98763.02
2018-09-06T02:53:47.857Z,98763.52
2018-09-06T02:56:50.202Z,98760.92
2018-09-06T02:59:52.559Z,98754.77
2018-09-06T03:02:54.826Z,98752.36
2018-09-06T03:05:57.200Z,98741.20
2018-09-06T03:08:59.510Z,98747.52
2018-09-06T03:12:03.340Z,98740.22
2018-09-06T03:15:05.602Z,98745.09
2018-09-06T03:18:07.883Z,98751.36
2018-09-06T03:21:10.093Z,98752.20
2018-09-06T03:24:12.400Z,98754.98
2018-09-06T03:27:14.670Z,98762.59
2018-09-06T03:30:17.173Z,98766.48
2018-09-06T03:33:19.501Z,98763.09
2018-09-06T03:36:21.824Z,98755.06
2018-09-06T03:39:24.074Z,98751.83
2018-09-06T03:42:26.329Z,98758.70
2018-09-06T03:45:28.663Z,98757.25
2018-09-06T03:48:31.116Z,98760.53
2018-09-06T03:51:33.429Z,98749.23
2018-09-06T03:54:35.797Z,98751.22
2018-09-06T03:57:38.157Z,98758.15
2018-09-06T04:00:41.121Z,98756.35
2018-09-06T04:03:43.491Z,98760.32
2018-09-06T04:06:46.277Z,98758.32
2018-09-06T04:09:48.555Z,98764.52
2018-09-06T04:12:50.827Z,98771.63
2018-09-06T04:15:53.103Z,98770.42
2018-09-06T04:18:55.492Z,98763.25
2018-09-06T04:21:57.700Z,98766.30
2018-09-06T04:25:00.062Z,98760.23
2018-09-06T04:28:02.296Z,98759.92
2018-09-06T04:31:04.669Z,98765.69
2018-09-06T04:34:07.012Z,98762.64
2018-09-06T04:37:09.191Z,98756.66
2018-09-06T04:40:11.365Z,98766.56
2018-09-06T04:44:38.312Z,98773.31
2018-09-06T04:47:40.582Z,98766.50
2018-09-06T04:50:42.853Z,98769.22
2018-09-06T04:53:45.112Z,98769.72
2018-09-06T04:56:47.559Z,98761.04
2018-09-06T04:59:49.905Z,98752.06
2018-09-06T05:02:52.136Z,98750.58
2018-09-06T05:05:54.516Z,98759.00
2018-09-06T05:08:56.821Z,98744.22
2018-09-06T05:11:59.058Z,98753.25
2018-09-06T05:15:01.314Z,98749.07
2018-09-06T05:18:04.112Z,98757.31
2018-09-06T05:21:06.418Z,98754.25
2018-09-06T05:24:08.798Z,98752.95
2018-09-06T05:27:11.218Z,98758.10
2018-09-06T05:30:13.536Z,98757.91
2018-09-06T05:33:15.895Z,98756.69
2018-09-06T05:36:18.425Z,98762.30
2018-09-06T05:39:20.586Z,98761.41
2018-09-06T05:42:22.889Z,98765.91
2018-09-06T05:45:25.285Z,98765.60
2018-09-06T05:48:27.634Z,98770.20
2018-09-06T05:51:29.970Z,98760.55
2018-09-06T05:54:32.378Z,98757.61
2018-09-06T05:57:34.717Z,98760.88
2018-09-06T06:00:42.682Z,98753.71
2018-09-06T06:03:45.003Z,98757.89
2018-09-06T06:06:47.408Z,98758.67
2018-09-06T06:09:49.719Z,98749.63
2018-09-06T06:12:52.206Z,98754.11
2018-09-06T06:15:54.483Z,98751.69
2018-09-06T06:18:56.739Z,98743.09
2018-09-06T06:21:59.165Z,98740.94
2018-09-06T06:25:01.489Z,98721.63
2018-09-06T06:28:03.967Z,98708.98
2018-09-06T06:31:06.286Z,98710.91
2018-09-06T06:34:08.596Z,98702.45
2018-09-06T06:37:10.866Z,98706.65
2018-09-06T06:40:13.230Z,98728.56
2018-09-06T06:43:15.461Z,98727.59
2018-09-06T06:46:17.918Z,98739.76
2018-09-06T06:49:20.078Z,98746.39
2018-09-06T06:52:22.281Z,98729.03
2018-09-06T06:55:24.557Z,98730.68
2018-09-06T06:58:26.857Z,98727.63
2018-09-06T07:01:29.133Z,98724.39
2018-09-06T07:04:31.486Z,98725.02
2018-09-06T07:07:33.635Z,98726.52
2018-09-06T07:10:36.154Z,98727.11
2018-09-06T07:13:38.289Z,98727.32
2018-09-06T07:16:40.536Z,98721.55
2018-09-06T07:19:42.692Z,98727.61
2018-09-06T07:22:44.919Z,98723.44
2018-09-06T07:25:47.234Z,98719.38
2018-09-06T07:28:49.521Z,98720.27
2018-09-06T07:31:51.816Z,98724.59
2018-09-06T07:34:54.274Z,98724.08
2018-09-06T07:37:56.485Z,98738.23
2018-09-06T07:40:58.805Z,98730.45
2018-09-06T07:44:01.070Z,98730.45
2018-09-06T07:47:03.354Z,98711.58
2018-09-06T07:50:05.671Z,98710.16
2018-09-06T07:53:07.915Z,98714.89
2018-09-06T07:56:10.290Z,98714.42
2018-09-06T07:59:12.618Z,98716.45
2018-09-06T08:02:14.944Z,98712.77
2018-09-06T08:05:17.255Z,98709.59
2018-09-06T08:08:19.574Z,98712.27
2018-09-06T08:11:21.929Z,98714.10
2018-09-06T08:14:24.209Z,98718.61
2018-09-06T08:17:26.494Z,98718.95
2018-09-06T08:20:28.771Z,98724.95
2018-09-06T08:26:26.135Z,98721.59
2018-09-06T08:29:28.410Z,98717.47
2018-09-06T08:32:30.736Z,98717.96
2018-09-06T08:35:33.072Z,98717.64
2018-09-06T08:38:35.553Z,98712.80
2018-09-06T08:41:38.638Z,98708.88
2018-09-06T08:44:40.982Z,98713.98
2018-09-06T08:47:43.220Z,98711.08
2018-09-06T08:50:45.495Z,98714.94
2018-09-06T08:53:47.778Z,98705.41
2018-09-06T08:56:50.064Z,98714.31
2018-09-06T08:59:52.313Z,98714.23
2018-09-06T09:02:54.815Z,98713.55
2018-09-06T09:05:57.056Z,98715.31
2018-09-06T09:08:59.341Z,98718.12
2018-09-06T09:12:01.383Z,98707.00
2018-09-06T09:15:03.693Z,98697.14
2018-09-06T09:18:05.976Z,98697.30
2018-09-06T09:21:08.294Z,98701.27
2018-09-06T09:24:10.645Z,98700.64
2018-09-06T09:27:13.104Z,98698.95
2018-09-06T09:30:15.475Z,98697.91
2018-09-06T09:33:17.829Z,98692.23
2018-09-06T09:36:20.127Z,98691.10
2018-09-06T09:39:22.400Z,98688.11
2018-09-06T09:42:24.789Z,98678.01
2018-09-06T09:45:27.143Z,98676.38
2018-09-06T09:48:29.383Z,98663.10
2018-09-06T09:51:31.720Z,98658.36
2018-09-06T09:54:34.070Z,98652.96
2018-09-06T09:57:36.673Z,98647.35
2018-09-06T10:00:40.439Z,98645.50
2018-09-06T10:03:48.503Z,98651.58
2018-09-06T10:06:56.459Z,98647.66
2018-09-06T10:09:58.733Z,98646.08
2018-09-06T10:13:01.035Z,98646.91
2018-09-06T10:16:04.406Z,98647.17
2018-09-06T10:19:06.745Z,98650.61
2018-09-06T10:22:09.017Z,98647.92
2018-09-06T10:25:11.311Z,98646.77
2018-09-06T10:28:13.701Z,98648.39
2018-09-06T10:31:15.888Z,98638.88
2018-09-06T10:34:18.085Z,98647.86
2018-09-06T10:37:20.332Z,98650.14
2018-09-06T10:40:22.907Z,98654.61
2018-09-06T10:43:25.251Z,98657.40
2018-09-06T10:46:27.573Z,98658.72
2018-09-06T10:49:29.990Z,98650.31
2018-09-06T10:52:32.274Z,98642.44
2018-09-06T10:55:34.514Z,98651.55
2018-09-06T10:58:36.865Z,98646.09
2018-09-06T11:01:39.036Z,98641.55
2018-09-06T11:04:42.050Z,98627.30
2018-09-06T11:07:44.386Z,98631.79
2018-09-06T11:10:46.834Z,98632.42
2018-09-06T11:13:49.058Z,98629.15
2018-09-06T11:16:51.309Z,98630.05
2018-09-06T11:19:53.490Z,98624.93
2018-09-06T11:22:55.741Z,98624.28
2018-09-06T11:25:58.132Z,98624.54
2018-09-06T11:29:00.666Z,98624.71
2018-09-06T11:32:02.891Z,98616.66
2018-09-06T11:35:05.216Z,98614.94
2018-09-06T11:38:07.439Z,98610.14
2018-09-06T11:41:09.877Z,98613.19
2018-09-06T11:44:12.166Z,98609.13
2018-09-06T11:47:15.536Z,98599.25
2018-09-06T11:50:17.776Z,98603.86
2018-09-06T11:53:20.462Z,98600.86
2018-09-06T11:56:22.761Z,98599.56
2018-09-06T11:59:25.071Z,98599.83
2018-09-06T12:02:27.471Z,98600.89
2018-09-06T12:05:29.840Z,98595.30
2018-09-06T12:08:32.386Z,98589.69
2018-09-06T12:11:35.040Z,98599.29
2018-09-06T12:14:37.411Z,98587.20
2018-09-06T12:17:39.797Z,98580.05
2018-09-06T12:20:42.055Z,98579.69
2018-09-06T12:23:44.443Z,98579.17
2018-09-06T12:26:46.983Z,98577.53
2018-09-06T12:29:49.328Z,98579.98
2018-09-06T12:32:51.682Z,98577.55
2018-09-06T12:35:54.119Z,98577.56
2018-09-06T12:38:57.512Z,98573.19
2018-09-06T12:41:59.955Z,98577.51
2018-09-06T12:45:02.536Z,98567.37
2018-09-06T12:48:05.269Z,98567.39
2018-09-06T12:54:09.356Z,98575.37
2018-09-06T12:57:11.719Z,98578.72
2018-09-06T13:00:14.074Z,98572.18
2018-09-06T13:03:16.403Z,98572.50
2018-09-06T13:06:18.928Z,98569.44
2018-09-06T13:09:21.292Z,98571.03
2018-09-06T13:12:23.681Z,98564.12
2018-09-06T13:15:26.073Z,98558.75
2018-09-06T13:18:28.412Z,98556.16
2018-09-06T13:21:30.815Z,98553.50
2018-09-06T13:24:33.172Z,98556.67
2018-09-06T13:27:35.567Z,98560.91
2018-09-06T13:30:38.128Z,98549.81
2018-09-06T13:33:40.557Z,98548.80
2018-09-06T13:36:42.928Z,98551.96
2018-09-06T13:39:45.401Z,98551.70
2018-09-06T13:42:47.682Z,98552.00
2018-09-06T13:45:50.021Z,98538.91
2018-09-06T13:48:52.444Z,98535.97
2018-09-06T13:51:54.785Z,98534.36
2018-09-06T13:54:57.407Z,98537.03
2018-09-06T13:57:59.962Z,98537.57
2018-09-06T14:01:02.354Z,98539.97
2018-09-06T14:04:04.775Z,98533.27
2018-09-06T14:07:07.239Z,98532.68
2018-09-06T14:10:09.688Z,98528.27
2018-09-06T14:13:11.940Z,98525.58
2018-09-06T14:16:14.328Z,98523.12
2018-09-06T14:19:16.829Z,98530.06
2018-09-06T14:22:19.317Z,98524.72
2018-09-06T14:25:21.639Z,98520.58
2018-09-06T14:28:23.904Z,98515.09
2018-09-06T14:31:26.173Z,98512.59
2018-09-06T14:34:28.453Z,98514.09
2018-09-06T14:37:30.769Z,98502.64
2018-09-06T14:47:23.767Z,98497.77
2018-09-06T14:50:26.352Z,98497.21
2018-09-06T14:53:28.804Z,98482.28
2018-09-06T14:56:31.119Z,98487.84
2018-09-06T14:59:33.417Z,98486.47
2018-09-06T15:02:35.771Z,98480.46
2018-09-06T15:05:38.182Z,98475.36
2018-09-06T15:08:40.545Z,98471.83
2018-09-06T15:11:42.937Z,98474.45
2018-09-06T15:14:45.237Z,98471.63
2018-09-06T15:17:47.624Z,98473.68
2018-09-06T15:20:50.008Z,98477.84
2018-09-06T15:23:52.323Z,98471.65
2018-09-06T15:26:54.621Z,98474.95
2018-09-06T15:29:56.887Z,98485.53
2018-09-06T15:32:59.094Z,98474.47
2018-09-06T15:36:01.488Z,98480.28
2018-09-06T15:39:05.499Z,98482.80
2018-09-06T15:42:08.192Z,98485.69
2018-09-06T15:45:10.564Z,98476.92
2018-09-06T15:48:12.838Z,98481.22
2018-09-06T15:51:15.193Z,98485.18
2018-09-06T15:54:17.505Z,98484.87
2018-09-06T15:57:19.799Z,98490.17
2018-09-06T16:00:22.087Z,98487.23
2018-09-06T16:03:24.439Z,98483.30
2018-09-06T16:06:26.974Z,98492.61
2018-09-06T16:09:29.327Z,98497.20
2018-09-06T16:12:31.704Z,98499.48
2018-09-06T16:15:34.031Z,98501.53
2018-09-06T16:18:36.325Z,98504.03
2018-09-06T16:21:38.510Z,98506.71
2018-09-06T16:24:40.856Z,98502.11
2018-09-06T16:27:43.460Z,98504.95
2018-09-06T16:30:46.122Z,98507.73
2018-09-06T16:33:48.418Z,98514.11
2018-09-06T16:36:50.842Z,98511.61
2018-09-06T16:39:53.413Z,98509.14
2018-09-06T16:42:55.723Z,98511.05
2018-09-06T16:45:58.201Z,98519.66
2018-09-06T16:49:00.566Z,98519.31
2018-09-06T16:52:02.962Z,98526.48
2018-09-06T16:55:05.761Z,98520.61
2018-09-06T16:58:08.005Z,98526.13
2018-09-06T17:01:11.035Z,98524.20
2018-09-06T17:04:13.272Z,98532.07
2018-09-06T17:07:15.776Z,98524.06
2018-09-06T17:10:18.131Z,98527.25
2018-09-06T17:13:20.497Z,98526.69
2018-09-06T17:16:22.853Z,98526.81
2018-09-06T17:19:25.250Z,98523.77
2018-09-06T17:22:27.717Z,98521.80
2018-09-06T17:25:30.034Z,98521.80
2018-09-06T17:28:32.360Z,98524.02
2018-09-06T17:31:34.575Z,98524.95
2018-09-06T17:34:36.809Z,98535.23
2018-09-06T17:37:39.190Z,98534.59
2018-09-06T17:40:41.393Z,98542.31
2018-09-06T17:43:44.858Z,98550.05
2018-09-06T17:46:48.235Z,98550.53
2018-09-06T17:49:50.900Z,98553.70
2018-09-06T17:52:53.301Z,98558.83
2018-09-06T17:55:55.497Z,98559.87
2018-09-06T17:58:57.893Z,98558.12
2018-09-06T18:02:00.215Z,98549.16
2018-09-06T18:05:02.540Z,98548.83
2018-09-06T18:08:05.287Z,98546.94
2018-09-06T18:11:08.034Z,98544.69
2018-09-06T18:14:10.544Z,98538.53
2018-09-06T18:17:12.927Z,98544.87
2018-09-06T18:20:15.303Z,98543.97
2018-09-06T18:23:17.726Z,98547.50
2018-09-06T18:26:20.752Z,98552.31
2018-09-06T18:29:23.114Z,98549.78
2018-09-06T18:32:25.564Z,98548.41
2018-09-06T18:35:27.842Z,98546.51
2018-09-06T18:38:30.056Z,98553.65
2018-09-06T18:41:32.451Z,98561.36
2018-09-06T18:44:38.289Z,98558.83
2018-09-06T18:47:41.672Z,98563.55
2018-09-06T18:50:44.100Z,98568.33
2018-09-06T18:53:46.344Z,98566.66
2018-09-06T18:56:48.801Z,98565.87
2018-09-06T18:59:51.170Z,98569.33
2018-09-06T19:02:53.736Z,98581.75
2018-09-06T19:05:56.008Z,98583.64
2018-09-06T19:08:58.254Z,98587.41
2018-09-06T19:12:00.540Z,98589.47
2018-09-06T19:15:02.976Z,98589.06
2018-09-06T19:18:05.342Z,98577.31
2018-09-06T19:21:07.895Z,98581.34
2018-09-06T19:24:10.298Z,98590.67
2018-09-06T19:27:12.711Z,98585.67
2018-09-06T19:30:15.087Z,98587.11
2018-09-06T19:33:17.357Z,98599.94
2018-09-06T19:36:19.872Z,98595.78
2018-09-06T19:39:22.362Z,98600.14
2018-09-06T19:42:24.849Z,98600.23
2018-09-06T19:45:27.210Z,98594.30
2018-09-06T19:48:29.561Z,98599.75
2018-09-06T19:51:31.793Z,98597.01
2018-09-06T19:54:34.054Z,98595.84
2018-09-06T19:57:36.507Z,98597.69
2018-09-06T20:00:38.823Z,98598.94
2018-09-06T20:03:41.085Z,98595.06
2018-09-06T20:06:43.320Z,98594.22
2018-09-06T20:09:45.685Z,98607.16
2018-09-06T20:12:48.792Z,98608.86
2018-09-06T20:15:51.092Z,98608.64
2018-09-06T20:18:53.388Z,98613.56
2018-09-06T20:21:55.645Z,98615.09
2018-09-06T20:24:57.984Z,98610.16
2018-09-06T20:28:00.302Z,98622.50
2018-09-06T20:31:02.526Z,98615.52
2018-09-06T20:34:04.760Z,98612.08
2018-09-06T20:37:07.030Z,98614.94
2018-09-06T20:40:09.300Z,98615.38
2018-09-06T20:43:11.616Z,98618.61
2018-09-06T20:46:13.832Z,98619.29
2018-09-06T20:49:16.104Z,98620.23
2018-09-06T20:52:18.417Z,98623.17
2018-09-06T20:55:20.765Z,98621.48
2018-09-06T20:58:22.971Z,98626.19
2018-09-06T21:01:25.262Z,98627.29
2018-09-06T21:04:27.460Z,98628.54
2018-09-06T21:07:29.721Z,98629.05
2018-09-06T21:10:32.077Z,98629.79
2018-09-06T21:13:34.332Z,98637.13
2018-09-06T21:16:36.629Z,98640.19
2018-09-06T21:19:38.943Z,98637.91
2018-09-06T21:22:41.228Z,98641.66
2018-09-06T21:25:43.603Z,98644.44
2018-09-06T21:28:45.980Z,98655.89
2018-09-06T21:31:48.327Z,98658.69
2018-09-06T21:34:50.785Z,98652.95
2018-09-06T21:37:53.250Z,98651.34
2018-09-06T21:40:55.609Z,98657.84
2018-09-06T21:43:57.968Z,98655.55
2018-09-06T21:47:00.334Z,98653.41
2018-09-06T21:50:02.734Z,98656.32
2018-09-06T21:53:05.080Z,98661.30
2018-09-06T21:56:07.394Z,98655.26
2018-09-06T21:59:09.635Z,98658.13
2018-09-06T22:02:17.733Z,98661.20
2018-09-06T22:05:20.041Z,98660.77
2018-09-06T22:08:22.280Z,98657.77
2018-09-06T22:11:24.546Z,98659.09
2018-09-06T22:14:26.890Z,98659.95
2018-09-06T22:17:29.096Z,98663.93
2018-09-06T22:20:31.473Z,98656.67
2018-09-06T22:23:33.864Z,98665.53
2018-09-06T22:26:36.152Z,98663.53
2018-09-06T22:29:38.592Z,98654.48
2018-09-06T22:32:41.047Z,98659.92
2018-09-06T22:35:43.300Z,98659.84
2018-09-06T22:38:45.563Z,98663.59
2018-09-06T22:41:47.809Z,98659.61
2018-09-06T22:44:50.136Z,98664.86
2018-09-06T22:47:52.402Z,98657.63
2018-09-06T22:50:54.704Z,98657.34
2018-09-06T22:53:56.997Z,98659.41
2018-09-06T22:56:59.372Z,98663.52
2018-09-06T23:00:01.936Z,98661.98
2018-09-06T23:03:09.901Z,98656.53
2018-09-06T23:06:12.302Z,98670.83
2018-09-06T23:09:14.665Z,98669.17
2018-09-06T23:12:16.938Z,98662.99
2018-09-06T23:15:19.272Z,98669.98
2018-09-06T23:18:21.519Z,98670.69
2018-09-06T23:21:23.856Z,98661.53
2018-09-06T23:24:26.249Z,98663.41
2018-09-06T23:27:28.547Z,98663.45
2018-09-06T23:30:30.788Z,98662.80
2018-09-06T23:33:33.145Z,98670.73
2018-09-06T23:36:35.433Z,98671.20
2018-09-06T23:39:37.704Z,98670.83
2018-09-06T23:42:40.075Z,98667.94
2018-09-06T23:45:42.430Z,98665.42
2018-09-06T23:48:44.744Z,98655.97
2018-09-06T23:51:47.194Z,98657.13
2018-09-06T23:54:49.862Z,98659.57
2018-09-06T23:57:52.094Z,98660.99
